sensor_id;sensor_type;location;lat;lon;timestamp;temperature;humidity
4964;DHT22;2497;47.410;9.740;2023-09-12T00:00:11;20.50;99.90
4964;DHT22;2497;47.410;9.740;2023-09-12T00:02:40;20.60;99.90
4964;DHT22;2497;47.410;9.740;2023-09-12T00:05:07;20.50;99.90
4964;DHT22;2497;47.410;9.740;2023-09-12T00:07:35;20.50;99.90
4964;DHT22;2497;47.410;9.740;2023-09-12T00:10:02;20.40;99.90
4964;DHT22;2497;47.410;9.740;2023-09-12T00:12:30;20.50;99.90
4964;DHT22;2497;47.410;9.740;2023-09-12T00:14:57;20.40;99.90
4964;DHT22;2497;47.410;9.740;2023-09-12T00:17:24;20.30;99.90
4964;DHT22;2497;47.410;9.740;2023-09-12T00:19:54;20.20;99.90
4964;DHT22;2497;47.410;9.740;2023-09-12T00:22:21;20.20;99.90
4964;DHT22;2497;47.410;9.740;2023-09-12T00:24:48;20.20;99.90
4964;DHT22;2497;47.410;9.740;2023-09-12T00:27:15;20.20;99.90
4964;DHT22;2497;47.410;9.740;2023-09-12T00:29:42;19.90;99.90
4964;DHT22;2497;47.410;9.740;2023-09-12T00:32:09;19.70;99.90
4964;DHT22;2497;47.410;9.740;2023-09-12T00:34:36;19.60;99.90
4964;DHT22;2497;47.410;9.740;2023-09-12T00:37:05;19.70;99.90
4964;DHT22;2497;47.410;9.740;2023-09-12T00:39:34;19.60;99.90
4964;DHT22;2497;47.410;9.740;2023-09-12T00:42:01;19.60;99.90
4964;DHT22;2497;47.410;9.740;2023-09-12T00:44:28;19.70;99.90
4964;DHT22;2497;47.410;9.740;2023-09-12T00:46:55;19.80;99.90
4964;DHT22;2497;47.410;9.740;2023-09-12T00:49:24;19.90;99.90
4964;DHT22;2497;47.410;9.740;2023-09-12T00:51:51;20.00;99.90
4964;DHT22;2497;47.410;9.740;2023-09-12T00:54:20;20.10;99.90
4964;DHT22;2497;47.410;9.740;2023-09-12T00:56:47;20.10;99.90
4964;DHT22;2497;47.410;9.740;2023-09-12T00:59:16;20.00;99.90
4964;DHT22;2497;47.410;9.740;2023-09-12T01:01:44;20.00;99.90
4964;DHT22;2497;47.410;9.740;2023-09-12T01:04:12;20.00;99.90
4964;DHT22;2497;47.410;9.740;2023-09-12T01:06:39;20.00;99.90
4964;DHT22;2497;47.410;9.740;2023-09-12T01:09:06;19.90;99.90
4964;DHT22;2497;47.410;9.740;2023-09-12T01:11:35;20.00;99.90
4964;DHT22;2497;47.410;9.740;2023-09-12T01:14:02;19.90;99.90
4964;DHT22;2497;47.410;9.740;2023-09-12T01:16:29;20.00;99.90
4964;DHT22;2497;47.410;9.740;2023-09-12T01:18:57;19.90;99.90
4964;DHT22;2497;47.410;9.740;2023-09-12T01:21:45;19.90;99.90
4964;DHT22;2497;47.410;9.740;2023-09-12T01:24:52;19.80;99.90
4964;DHT22;2497;47.410;9.740;2023-09-12T01:27:28;19.90;99.90
4964;DHT22;2497;47.410;9.740;2023-09-12T01:29:58;19.90;99.90
4964;DHT22;2497;47.410;9.740;2023-09-12T01:32:28;20.00;99.90
4964;DHT22;2497;47.410;9.740;2023-09-12T01:34:55;20.00;99.90
4964;DHT22;2497;47.410;9.740;2023-09-12T01:37:23;20.00;99.90
4964;DHT22;2497;47.410;9.740;2023-09-12T01:39:50;20.00;99.90
4964;DHT22;2497;47.410;9.740;2023-09-12T01:42:20;19.90;99.90
4964;DHT22;2497;47.410;9.740;2023-09-12T01:44:50;20.00;99.90
4964;DHT22;2497;47.410;9.740;2023-09-12T01:47:24;19.90;99.90
4964;DHT22;2497;47.410;9.740;2023-09-12T01:49:54;19.90;99.90
4964;DHT22;2497;47.410;9.740;2023-09-12T01:52:25;19.80;99.90
4964;DHT22;2497;47.410;9.740;2023-09-12T01:54:53;19.70;99.90
4964;DHT22;2497;47.410;9.740;2023-09-12T01:57:21;19.70;99.90
4964;DHT22;2497;47.410;9.740;2023-09-12T01:59:49;19.60;99.90
4964;DHT22;2497;47.410;9.740;2023-09-12T02:02:17;19.60;99.90
4964;DHT22;2497;47.410;9.740;2023-09-12T02:04:51;19.70;99.90
4964;DHT22;2497;47.410;9.740;2023-09-12T02:07:18;19.70;99.90
4964;DHT22;2497;47.410;9.740;2023-09-12T02:09:46;19.50;99.90
4964;DHT22;2497;47.410;9.740;2023-09-12T02:12:13;19.40;99.90
4964;DHT22;2497;47.410;9.740;2023-09-12T02:14:40;19.40;99.90
4964;DHT22;2497;47.410;9.740;2023-09-12T02:17:08;19.40;99.90
4964;DHT22;2497;47.410;9.740;2023-09-12T02:19:35;19.40;99.90
4964;DHT22;2497;47.410;9.740;2023-09-12T02:22:03;19.40;99.90
4964;DHT22;2497;47.410;9.740;2023-09-12T02:24:30;19.40;99.90
4964;DHT22;2497;47.410;9.740;2023-09-12T02:26:57;19.40;99.90
4964;DHT22;2497;47.410;9.740;2023-09-12T02:29:24;19.20;99.90
4964;DHT22;2497;47.410;9.740;2023-09-12T02:31:51;19.10;99.90
4964;DHT22;2497;47.410;9.740;2023-09-12T02:34:20;19.20;99.90
4964;DHT22;2497;47.410;9.740;2023-09-12T02:36:47;19.10;99.90
4964;DHT22;2497;47.410;9.740;2023-09-12T02:39:14;18.90;99.90
4964;DHT22;2497;47.410;9.740;2023-09-12T02:41:41;18.70;99.90
4964;DHT22;2497;47.410;9.740;2023-09-12T02:44:10;18.70;99.90
4964;DHT22;2497;47.410;9.740;2023-09-12T02:46:37;18.60;99.90
4964;DHT22;2497;47.410;9.740;2023-09-12T02:49:04;18.50;99.90
4964;DHT22;2497;47.410;9.740;2023-09-12T02:51:33;18.40;99.90
4964;DHT22;2497;47.410;9.740;2023-09-12T02:54:00;18.40;99.90
4964;DHT22;2497;47.410;9.740;2023-09-12T02:56:27;18.40;99.90
4964;DHT22;2497;47.410;9.740;2023-09-12T02:58:54;18.20;99.90
4964;DHT22;2497;47.410;9.740;2023-09-12T03:01:21;18.30;99.90
4964;DHT22;2497;47.410;9.740;2023-09-12T03:03:48;18.30;99.90
4964;DHT22;2497;47.410;9.740;2023-09-12T03:06:16;18.30;99.90
4964;DHT22;2497;47.410;9.740;2023-09-12T03:08:45;18.50;99.90
4964;DHT22;2497;47.410;9.740;2023-09-12T03:11:12;18.60;99.90
4964;DHT22;2497;47.410;9.740;2023-09-12T03:13:41;18.60;99.90
4964;DHT22;2497;47.410;9.740;2023-09-12T03:16:10;18.60;99.90
4964;DHT22;2497;47.410;9.740;2023-09-12T03:18:37;18.70;99.90
4964;DHT22;2497;47.410;9.740;2023-09-12T03:21:04;18.70;99.90
4964;DHT22;2497;47.410;9.740;2023-09-12T03:23:31;18.80;99.90
4964;DHT22;2497;47.410;9.740;2023-09-12T03:26:02;18.80;99.90
4964;DHT22;2497;47.410;9.740;2023-09-12T03:28:29;18.70;99.90
4964;DHT22;2497;47.410;9.740;2023-09-12T03:31:03;18.60;99.90
4964;DHT22;2497;47.410;9.740;2023-09-12T03:33:31;18.40;99.90
4964;DHT22;2497;47.410;9.740;2023-09-12T03:35:58;18.20;99.90
4964;DHT22;2497;47.410;9.740;2023-09-12T03:38:25;18.20;99.90
4964;DHT22;2497;47.410;9.740;2023-09-12T03:40:53;18.30;99.90
4964;DHT22;2497;47.410;9.740;2023-09-12T03:43:21;18.40;99.90
4964;DHT22;2497;47.410;9.740;2023-09-12T03:45:48;18.50;99.90
4964;DHT22;2497;47.410;9.740;2023-09-12T03:48:15;18.60;99.90
4964;DHT22;2497;47.410;9.740;2023-09-12T03:50:42;18.60;99.90
4964;DHT22;2497;47.410;9.740;2023-09-12T03:53:10;18.60;99.90
4964;DHT22;2497;47.410;9.740;2023-09-12T03:55:37;18.60;99.90
4964;DHT22;2497;47.410;9.740;2023-09-12T03:58:04;18.70;99.90
4964;DHT22;2497;47.410;9.740;2023-09-12T04:00:33;18.70;99.90
4964;DHT22;2497;47.410;9.740;2023-09-12T04:03:00;18.60;99.90
4964;DHT22;2497;47.410;9.740;2023-09-12T04:05:27;18.60;99.90
4964;DHT22;2497;47.410;9.740;2023-09-12T04:07:54;18.50;99.90
4964;DHT22;2497;47.410;9.740;2023-09-12T04:10:22;18.50;99.90
4964;DHT22;2497;47.410;9.740;2023-09-12T04:12:49;18.50;99.90
4964;DHT22;2497;47.410;9.740;2023-09-12T04:15:16;18.50;99.90
4964;DHT22;2497;47.410;9.740;2023-09-12T04:17:44;18.40;99.90
4964;DHT22;2497;47.410;9.740;2023-09-12T04:20:22;18.20;99.90
4964;DHT22;2497;47.410;9.740;2023-09-12T04:22:53;18.10;99.90
4964;DHT22;2497;47.410;9.740;2023-09-12T04:25:20;17.90;99.90
4964;DHT22;2497;47.410;9.740;2023-09-12T04:27:47;17.90;99.90
4964;DHT22;2497;47.410;9.740;2023-09-12T04:30:14;18.00;99.90
4964;DHT22;2497;47.410;9.740;2023-09-12T04:32:41;18.20;99.90
4964;DHT22;2497;47.410;9.740;2023-09-12T04:35:22;18.20;99.90
4964;DHT22;2497;47.410;9.740;2023-09-12T04:37:57;18.30;99.90
4964;DHT22;2497;47.410;9.740;2023-09-12T04:40:25;18.20;99.90
4964;DHT22;2497;47.410;9.740;2023-09-12T04:42:52;18.20;99.90
4964;DHT22;2497;47.410;9.740;2023-09-12T04:45:19;18.00;99.90
4964;DHT22;2497;47.410;9.740;2023-09-12T04:47:47;18.00;99.90
4964;DHT22;2497;47.410;9.740;2023-09-12T04:50:15;18.10;99.90
4964;DHT22;2497;47.410;9.740;2023-09-12T04:52:42;18.20;99.90
4964;DHT22;2497;47.410;9.740;2023-09-12T04:55:09;18.10;99.90
4964;DHT22;2497;47.410;9.740;2023-09-12T04:57:36;18.00;99.90
4964;DHT22;2497;47.410;9.740;2023-09-12T05:00:04;17.90;99.90
4964;DHT22;2497;47.410;9.740;2023-09-12T05:02:34;18.10;99.90
4964;DHT22;2497;47.410;9.740;2023-09-12T05:05:02;18.10;99.90
4964;DHT22;2497;47.410;9.740;2023-09-12T05:07:30;18.10;99.90
4964;DHT22;2497;47.410;9.740;2023-09-12T05:09:58;18.20;99.90
4964;DHT22;2497;47.410;9.740;2023-09-12T05:12:25;18.20;99.90
4964;DHT22;2497;47.410;9.740;2023-09-12T05:14:52;18.30;99.90
4964;DHT22;2497;47.410;9.740;2023-09-12T05:17:19;18.30;99.90
4964;DHT22;2497;47.410;9.740;2023-09-12T05:19:46;18.30;99.90
4964;DHT22;2497;47.410;9.740;2023-09-12T05:22:13;18.30;99.90
4964;DHT22;2497;47.410;9.740;2023-09-12T05:24:42;18.40;99.90
4964;DHT22;2497;47.410;9.740;2023-09-12T05:27:10;18.40;99.90
4964;DHT22;2497;47.410;9.740;2023-09-12T05:29:37;18.20;99.90
4964;DHT22;2497;47.410;9.740;2023-09-12T05:32:05;18.10;99.90
4964;DHT22;2497;47.410;9.740;2023-09-12T05:34:32;17.90;99.90
4964;DHT22;2497;47.410;9.740;2023-09-12T05:36:59;18.00;99.90
4964;DHT22;2497;47.410;9.740;2023-09-12T05:39:26;18.10;99.90
4964;DHT22;2497;47.410;9.740;2023-09-12T05:41:54;18.10;99.90
4964;DHT22;2497;47.410;9.740;2023-09-12T05:44:21;18.20;99.90
4964;DHT22;2497;47.410;9.740;2023-09-12T05:46:49;18.20;99.90
4964;DHT22;2497;47.410;9.740;2023-09-12T05:49:16;18.40;99.90
4964;DHT22;2497;47.410;9.740;2023-09-12T05:51:43;18.40;99.90
4964;DHT22;2497;47.410;9.740;2023-09-12T05:54:10;18.40;99.90
4964;DHT22;2497;47.410;9.740;2023-09-12T05:56:39;18.30;99.90
4964;DHT22;2497;47.410;9.740;2023-09-12T05:59:07;18.20;99.90
4964;DHT22;2497;47.410;9.740;2023-09-12T06:01:34;18.10;99.90
4964;DHT22;2497;47.410;9.740;2023-09-12T06:04:01;18.40;99.90
4964;DHT22;2497;47.410;9.740;2023-09-12T06:06:28;18.40;99.90
4964;DHT22;2497;47.410;9.740;2023-09-12T06:08:56;18.50;99.90
4964;DHT22;2497;47.410;9.740;2023-09-12T06:11:23;18.50;99.90
4964;DHT22;2497;47.410;9.740;2023-09-12T06:13:50;18.70;99.90
4964;DHT22;2497;47.410;9.740;2023-09-12T06:16:19;18.90;99.90
4964;DHT22;2497;47.410;9.740;2023-09-12T06:18:46;19.10;99.90
4964;DHT22;2497;47.410;9.740;2023-09-12T06:21:14;19.20;99.90
4964;DHT22;2497;47.410;9.740;2023-09-12T06:23:41;19.40;99.90
4964;DHT22;2497;47.410;9.740;2023-09-12T06:26:08;19.90;99.90
4964;DHT22;2497;47.410;9.740;2023-09-12T06:28:35;20.40;99.90
4964;DHT22;2497;47.410;9.740;2023-09-12T06:31:02;20.80;99.90
4964;DHT22;2497;47.410;9.740;2023-09-12T06:33:30;21.20;99.90
4964;DHT22;2497;47.410;9.740;2023-09-12T06:35:57;21.60;99.90
4964;DHT22;2497;47.410;9.740;2023-09-12T06:38:24;21.80;99.90
4964;DHT22;2497;47.410;9.740;2023-09-12T06:40:51;22.10;99.90
4964;DHT22;2497;47.410;9.740;2023-09-12T06:43:19;22.60;99.90
4964;DHT22;2497;47.410;9.740;2023-09-12T06:45:46;22.00;99.90
4964;DHT22;2497;47.410;9.740;2023-09-12T06:48:14;21.70;99.90
4964;DHT22;2497;47.410;9.740;2023-09-12T06:50:43;21.60;99.90
4964;DHT22;2497;47.410;9.740;2023-09-12T06:53:10;21.70;99.90
4964;DHT22;2497;47.410;9.740;2023-09-12T06:55:37;21.60;99.90
4964;DHT22;2497;47.410;9.740;2023-09-12T06:58:05;21.40;99.90
4964;DHT22;2497;47.410;9.740;2023-09-12T07:00:33;21.60;99.90
4964;DHT22;2497;47.410;9.740;2023-09-12T07:03:00;21.70;99.90
4964;DHT22;2497;47.410;9.740;2023-09-12T07:05:27;21.70;99.90
4964;DHT22;2497;47.410;9.740;2023-09-12T07:07:56;21.70;99.90
4964;DHT22;2497;47.410;9.740;2023-09-12T07:10:23;21.90;99.90
4964;DHT22;2497;47.410;9.740;2023-09-12T07:12:50;22.00;99.90
4964;DHT22;2497;47.410;9.740;2023-09-12T07:15:17;22.10;99.90
4964;DHT22;2497;47.410;9.740;2023-09-12T07:17:44;22.10;99.90
4964;DHT22;2497;47.410;9.740;2023-09-12T07:20:12;22.60;99.90
4964;DHT22;2497;47.410;9.740;2023-09-12T07:22:39;23.00;99.90
4964;DHT22;2497;47.410;9.740;2023-09-12T07:25:08;23.70;99.90
4964;DHT22;2497;47.410;9.740;2023-09-12T07:27:37;23.70;99.90
4964;DHT22;2497;47.410;9.740;2023-09-12T07:30:05;23.60;99.90
4964;DHT22;2497;47.410;9.740;2023-09-12T07:32:33;23.80;99.90
4964;DHT22;2497;47.410;9.740;2023-09-12T07:34:59;24.50;99.90
4964;DHT22;2497;47.410;9.740;2023-09-12T07:37:27;25.00;99.90
4964;DHT22;2497;47.410;9.740;2023-09-12T07:39:54;25.00;99.90
4964;DHT22;2497;47.410;9.740;2023-09-12T07:42:23;24.50;99.90
4964;DHT22;2497;47.410;9.740;2023-09-12T07:44:51;24.60;99.90
4964;DHT22;2497;47.410;9.740;2023-09-12T07:47:18;24.40;99.90
4964;DHT22;2497;47.410;9.740;2023-09-12T07:49:45;24.60;99.90
4964;DHT22;2497;47.410;9.740;2023-09-12T07:52:13;24.70;99.90
4964;DHT22;2497;47.410;9.740;2023-09-12T07:54:40;26.00;99.90
4964;DHT22;2497;47.410;9.740;2023-09-12T07:57:07;26.70;99.90
4964;DHT22;2497;47.410;9.740;2023-09-12T07:59:38;26.30;99.90
4964;DHT22;2497;47.410;9.740;2023-09-12T08:02:05;25.50;99.90
4964;DHT22;2497;47.410;9.740;2023-09-12T08:04:33;25.40;99.90
4964;DHT22;2497;47.410;9.740;2023-09-12T08:07:00;25.30;99.90
4964;DHT22;2497;47.410;9.740;2023-09-12T08:09:50;25.00;99.90
4964;DHT22;2497;47.410;9.740;2023-09-12T08:12:18;24.70;99.90
4964;DHT22;2497;47.410;9.740;2023-09-12T08:14:47;24.60;99.90
4964;DHT22;2497;47.410;9.740;2023-09-12T08:17:14;24.60;99.90
4964;DHT22;2497;47.410;9.740;2023-09-12T08:19:42;24.50;99.90
4964;DHT22;2497;47.410;9.740;2023-09-12T08:22:10;24.70;99.90
4964;DHT22;2497;47.410;9.740;2023-09-12T08:24:37;25.20;99.90
4964;DHT22;2497;47.410;9.740;2023-09-12T08:27:06;25.10;99.90
4964;DHT22;2497;47.410;9.740;2023-09-12T08:29:34;24.90;99.90
4964;DHT22;2497;47.410;9.740;2023-09-12T08:32:02;25.10;99.90
4964;DHT22;2497;47.410;9.740;2023-09-12T08:34:29;25.70;99.90
4964;DHT22;2497;47.410;9.740;2023-09-12T08:36:56;25.60;99.90
4964;DHT22;2497;47.410;9.740;2023-09-12T08:39:24;25.60;99.90
4964;DHT22;2497;47.410;9.740;2023-09-12T08:41:52;25.90;99.90
4964;DHT22;2497;47.410;9.740;2023-09-12T08:44:21;26.10;99.90
4964;DHT22;2497;47.410;9.740;2023-09-12T08:46:48;25.90;99.90
4964;DHT22;2497;47.410;9.740;2023-09-12T08:49:16;26.30;99.90
4964;DHT22;2497;47.410;9.740;2023-09-12T08:51:43;26.00;99.90
4964;DHT22;2497;47.410;9.740;2023-09-12T08:54:10;26.70;99.90
4964;DHT22;2497;47.410;9.740;2023-09-12T08:56:40;26.70;99.90
4964;DHT22;2497;47.410;9.740;2023-09-12T08:59:08;26.60;99.90
4964;DHT22;2497;47.410;9.740;2023-09-12T09:01:38;26.30;99.90
4964;DHT22;2497;47.410;9.740;2023-09-12T09:04:06;26.30;99.90
4964;DHT22;2497;47.410;9.740;2023-09-12T09:06:34;26.30;99.90
4964;DHT22;2497;47.410;9.740;2023-09-12T09:09:04;26.50;99.90
4964;DHT22;2497;47.410;9.740;2023-09-12T09:11:32;26.30;99.90
4964;DHT22;2497;47.410;9.740;2023-09-12T09:14:00;26.20;99.90
4964;DHT22;2497;47.410;9.740;2023-09-12T09:16:28;26.40;99.90
4964;DHT22;2497;47.410;9.740;2023-09-12T09:18:59;26.90;99.90
4964;DHT22;2497;47.410;9.740;2023-09-12T09:21:28;27.20;99.90
4964;DHT22;2497;47.410;9.740;2023-09-12T09:23:58;27.10;99.90
4964;DHT22;2497;47.410;9.740;2023-09-12T09:26:25;26.90;99.90
4964;DHT22;2497;47.410;9.740;2023-09-12T09:29:08;27.20;99.90
4964;DHT22;2497;47.410;9.740;2023-09-12T09:31:36;27.40;99.90
4964;DHT22;2497;47.410;9.740;2023-09-12T09:34:12;27.40;99.90
4964;DHT22;2497;47.410;9.740;2023-09-12T09:36:43;27.60;99.90
4964;DHT22;2497;47.410;9.740;2023-09-12T09:39:11;28.10;99.90
4964;DHT22;2497;47.410;9.740;2023-09-12T09:41:39;28.10;99.90
4964;DHT22;2497;47.410;9.740;2023-09-12T09:44:07;28.10;99.90
4964;DHT22;2497;47.410;9.740;2023-09-12T09:46:35;27.90;99.90
4964;DHT22;2497;47.410;9.740;2023-09-12T09:49:03;27.80;99.90
4964;DHT22;2497;47.410;9.740;2023-09-12T09:51:40;27.90;99.90
4964;DHT22;2497;47.410;9.740;2023-09-12T09:54:08;27.70;99.90
4964;DHT22;2497;47.410;9.740;2023-09-12T09:56:45;27.90;99.90
4964;DHT22;2497;47.410;9.740;2023-09-12T09:59:14;27.90;99.90
4964;DHT22;2497;47.410;9.740;2023-09-12T10:01:43;28.10;99.90
4964;DHT22;2497;47.410;9.740;2023-09-12T10:04:11;27.90;99.90
4964;DHT22;2497;47.410;9.740;2023-09-12T10:06:42;28.50;99.90
4964;DHT22;2497;47.410;9.740;2023-09-12T10:09:11;29.00;99.90
4964;DHT22;2497;47.410;9.740;2023-09-12T10:11:39;28.70;99.90
4964;DHT22;2497;47.410;9.740;2023-09-12T10:14:07;28.70;99.90
4964;DHT22;2497;47.410;9.740;2023-09-12T10:16:35;28.70;99.90
4964;DHT22;2497;47.410;9.740;2023-09-12T10:19:10;29.20;99.90
4964;DHT22;2497;47.410;9.740;2023-09-12T10:21:46;28.90;99.90
4964;DHT22;2497;47.410;9.740;2023-09-12T10:24:15;28.70;99.90
4964;DHT22;2497;47.410;9.740;2023-09-12T10:26:43;28.70;99.90
4964;DHT22;2497;47.410;9.740;2023-09-12T10:29:13;29.20;99.90
4964;DHT22;2497;47.410;9.740;2023-09-12T10:31:40;29.10;99.90
4964;DHT22;2497;47.410;9.740;2023-09-12T10:34:08;29.10;99.90
4964;DHT22;2497;47.410;9.740;2023-09-12T10:36:39;29.50;99.90
4964;DHT22;2497;47.410;9.740;2023-09-12T10:39:09;29.70;99.90
4964;DHT22;2497;47.410;9.740;2023-09-12T10:41:37;30.30;99.90
4964;DHT22;2497;47.410;9.740;2023-09-12T10:44:09;30.50;99.90
4964;DHT22;2497;47.410;9.740;2023-09-12T10:46:37;30.00;99.90
4964;DHT22;2497;47.410;9.740;2023-09-12T10:49:06;29.80;99.90
4964;DHT22;2497;47.410;9.740;2023-09-12T10:51:37;30.00;99.90
4964;DHT22;2497;47.410;9.740;2023-09-12T10:54:05;30.00;99.90
4964;DHT22;2497;47.410;9.740;2023-09-12T10:56:35;30.00;99.90
4964;DHT22;2497;47.410;9.740;2023-09-12T10:59:13;29.80;99.90
4964;DHT22;2497;47.410;9.740;2023-09-12T11:01:41;29.80;99.90
4964;DHT22;2497;47.410;9.740;2023-09-12T11:04:30;29.90;99.90
4964;DHT22;2497;47.410;9.740;2023-09-12T11:06:59;29.70;99.90
4964;DHT22;2497;47.410;9.740;2023-09-12T11:09:26;29.50;99.90
4964;DHT22;2497;47.410;9.740;2023-09-12T11:12:01;29.60;99.90
4964;DHT22;2497;47.410;9.740;2023-09-12T11:14:29;29.40;99.90
4964;DHT22;2497;47.410;9.740;2023-09-12T11:17:20;29.40;99.90
4964;DHT22;2497;47.410;9.740;2023-09-12T11:19:48;29.80;99.90
4964;DHT22;2497;47.410;9.740;2023-09-12T11:22:25;30.40;99.90
4964;DHT22;2497;47.410;9.740;2023-09-12T11:24:54;29.90;99.90
4964;DHT22;2497;47.410;9.740;2023-09-12T11:27:24;29.70;99.90
4964;DHT22;2497;47.410;9.740;2023-09-12T11:29:52;29.50;99.90
4964;DHT22;2497;47.410;9.740;2023-09-12T11:32:29;29.70;99.90
4964;DHT22;2497;47.410;9.740;2023-09-12T11:34:57;29.90;99.90
4964;DHT22;2497;47.410;9.740;2023-09-12T11:37:26;30.00;99.90
4964;DHT22;2497;47.410;9.740;2023-09-12T11:39:56;30.00;99.90
4964;DHT22;2497;47.410;9.740;2023-09-12T11:42:26;29.90;99.90
4964;DHT22;2497;47.410;9.740;2023-09-12T11:44:54;30.10;99.90
4964;DHT22;2497;47.410;9.740;2023-09-12T11:47:21;29.90;99.90
4964;DHT22;2497;47.410;9.740;2023-09-12T11:49:49;30.00;99.90
4964;DHT22;2497;47.410;9.740;2023-09-12T11:52:15;29.90;99.90
4964;DHT22;2497;47.410;9.740;2023-09-12T11:54:43;29.70;99.90
4964;DHT22;2497;47.410;9.740;2023-09-12T11:57:13;29.90;99.90
4964;DHT22;2497;47.410;9.740;2023-09-12T11:59:43;30.00;99.90
4964;DHT22;2497;47.410;9.740;2023-09-12T12:02:11;30.00;99.90
4964;DHT22;2497;47.410;9.740;2023-09-12T12:04:38;30.20;99.90
4964;DHT22;2497;47.410;9.740;2023-09-12T12:07:06;30.10;99.90
4964;DHT22;2497;47.410;9.740;2023-09-12T12:09:34;30.30;99.90
4964;DHT22;2497;47.410;9.740;2023-09-12T12:12:09;30.00;99.90
4964;DHT22;2497;47.410;9.740;2023-09-12T12:14:38;30.00;99.90
4964;DHT22;2497;47.410;9.740;2023-09-12T12:17:07;30.00;99.90
4964;DHT22;2497;47.410;9.740;2023-09-12T12:19:35;29.90;99.90
4964;DHT22;2497;47.410;9.740;2023-09-12T12:22:03;29.90;99.90
4964;DHT22;2497;47.410;9.740;2023-09-12T12:24:40;29.70;99.90
4964;DHT22;2497;47.410;9.740;2023-09-12T12:27:07;30.00;99.90
4964;DHT22;2497;47.410;9.740;2023-09-12T12:29:36;30.00;99.90
4964;DHT22;2497;47.410;9.740;2023-09-12T12:32:07;29.90;99.90
4964;DHT22;2497;47.410;9.740;2023-09-12T12:34:35;30.00;99.90
4964;DHT22;2497;47.410;9.740;2023-09-12T12:37:03;30.00;99.90
4964;DHT22;2497;47.410;9.740;2023-09-12T12:39:31;29.70;99.90
4964;DHT22;2497;47.410;9.740;2023-09-12T12:41:58;29.50;99.90
4964;DHT22;2497;47.410;9.740;2023-09-12T12:44:33;29.70;99.90
4964;DHT22;2497;47.410;9.740;2023-09-12T12:47:04;29.80;99.90
4964;DHT22;2497;47.410;9.740;2023-09-12T12:49:36;29.80;99.90
4964;DHT22;2497;47.410;9.740;2023-09-12T12:52:05;29.80;99.90
4964;DHT22;2497;47.410;9.740;2023-09-12T12:54:32;29.80;99.90
4964;DHT22;2497;47.410;9.740;2023-09-12T12:57:00;29.90;99.90
4964;DHT22;2497;47.410;9.740;2023-09-12T12:59:28;29.90;99.90
4964;DHT22;2497;47.410;9.740;2023-09-12T13:02:00;29.90;99.90
4964;DHT22;2497;47.410;9.740;2023-09-12T13:04:28;29.70;99.90
4964;DHT22;2497;47.410;9.740;2023-09-12T13:07:03;29.60;99.90
4964;DHT22;2497;47.410;9.740;2023-09-12T13:09:30;29.40;99.90
4964;DHT22;2497;47.410;9.740;2023-09-12T13:11:58;29.20;99.90
4964;DHT22;2497;47.410;9.740;2023-09-12T13:14:25;29.00;99.90
4964;DHT22;2497;47.410;9.740;2023-09-12T13:16:58;28.80;99.90
4964;DHT22;2497;47.410;9.740;2023-09-12T13:19:25;28.70;99.90
4964;DHT22;2497;47.410;9.740;2023-09-12T13:21:53;28.40;99.90
4964;DHT22;2497;47.410;9.740;2023-09-12T13:24:21;28.30;99.90
4964;DHT22;2497;47.410;9.740;2023-09-12T13:26:49;28.10;99.90
4964;DHT22;2497;47.410;9.740;2023-09-12T13:29:16;27.90;99.90
4964;DHT22;2497;47.410;9.740;2023-09-12T13:31:43;27.80;99.90
4964;DHT22;2497;47.410;9.740;2023-09-12T13:34:10;27.60;99.90
4964;DHT22;2497;47.410;9.740;2023-09-12T13:36:37;27.50;99.90
4964;DHT22;2497;47.410;9.740;2023-09-12T13:39:04;27.40;99.90
4964;DHT22;2497;47.410;9.740;2023-09-12T13:41:33;27.20;99.90
4964;DHT22;2497;47.410;9.740;2023-09-12T13:44:00;27.00;99.90
4964;DHT22;2497;47.410;9.740;2023-09-12T13:46:27;26.90;99.90
4964;DHT22;2497;47.410;9.740;2023-09-12T13:48:55;26.80;99.90
4964;DHT22;2497;47.410;9.740;2023-09-12T13:51:26;26.80;99.90
4964;DHT22;2497;47.410;9.740;2023-09-12T13:53:53;26.60;99.90
4964;DHT22;2497;47.410;9.740;2023-09-12T13:56:20;26.40;99.90
4964;DHT22;2497;47.410;9.740;2023-09-12T13:58:49;26.40;99.90
4964;DHT22;2497;47.410;9.740;2023-09-12T14:01:18;26.30;99.90
4964;DHT22;2497;47.410;9.740;2023-09-12T14:03:46;26.10;99.90
4964;DHT22;2497;47.410;9.740;2023-09-12T14:06:13;26.00;99.90
4964;DHT22;2497;47.410;9.740;2023-09-12T14:08:41;25.80;99.90
4964;DHT22;2497;47.410;9.740;2023-09-12T14:11:08;25.60;99.90
4964;DHT22;2497;47.410;9.740;2023-09-12T14:13:36;25.50;99.90
4964;DHT22;2497;47.410;9.740;2023-09-12T14:16:06;25.40;99.90
4964;DHT22;2497;47.410;9.740;2023-09-12T14:18:35;25.40;99.90
4964;DHT22;2497;47.410;9.740;2023-09-12T14:21:04;25.30;99.90
4964;DHT22;2497;47.410;9.740;2023-09-12T14:23:32;25.20;99.90
4964;DHT22;2497;47.410;9.740;2023-09-12T14:26:01;25.30;99.90
4964;DHT22;2497;47.410;9.740;2023-09-12T14:28:30;25.40;99.90
4964;DHT22;2497;47.410;9.740;2023-09-12T14:31:01;25.40;99.90
4964;DHT22;2497;47.410;9.740;2023-09-12T14:33:32;25.50;99.90
4964;DHT22;2497;47.410;9.740;2023-09-12T14:36:01;25.70;99.90
4964;DHT22;2497;47.410;9.740;2023-09-12T14:38:34;25.70;99.90
4964;DHT22;2497;47.410;9.740;2023-09-12T14:41:03;25.70;99.90
4964;DHT22;2497;47.410;9.740;2023-09-12T14:43:32;25.60;99.90
4964;DHT22;2497;47.410;9.740;2023-09-12T14:46:01;25.50;99.90
4964;DHT22;2497;47.410;9.740;2023-09-12T14:48:32;25.50;99.90
4964;DHT22;2497;47.410;9.740;2023-09-12T14:51:04;25.20;99.90
4964;DHT22;2497;47.410;9.740;2023-09-12T14:53:33;24.90;99.90
4964;DHT22;2497;47.410;9.740;2023-09-12T14:56:01;24.80;99.90
4964;DHT22;2497;47.410;9.740;2023-09-12T14:58:30;24.70;99.90
4964;DHT22;2497;47.410;9.740;2023-09-12T15:00:59;24.60;99.90
4964;DHT22;2497;47.410;9.740;2023-09-12T15:03:27;24.30;99.90
4964;DHT22;2497;47.410;9.740;2023-09-12T15:05:58;23.40;99.90
4964;DHT22;2497;47.410;9.740;2023-09-12T15:08:27;22.20;99.90
4964;DHT22;2497;47.410;9.740;2023-09-12T15:10:55;21.50;99.90
4964;DHT22;2497;47.410;9.740;2023-09-12T15:13:24;21.20;99.90
4964;DHT22;2497;47.410;9.740;2023-09-12T15:15:52;20.90;99.90
4964;DHT22;2497;47.410;9.740;2023-09-12T15:18:20;20.70;99.90
4964;DHT22;2497;47.410;9.740;2023-09-12T15:20:49;20.60;99.90
4964;DHT22;2497;47.410;9.740;2023-09-12T15:23:19;20.50;99.90
4964;DHT22;2497;47.410;9.740;2023-09-12T15:25:49;20.50;99.90
4964;DHT22;2497;47.410;9.740;2023-09-12T15:28:17;20.50;99.90
4964;DHT22;2497;47.410;9.740;2023-09-12T15:30:45;20.40;99.90
4964;DHT22;2497;47.410;9.740;2023-09-12T15:33:14;20.40;99.90
4964;DHT22;2497;47.410;9.740;2023-09-12T15:35:42;20.40;99.90
4964;DHT22;2497;47.410;9.740;2023-09-12T15:38:11;20.50;99.90
4964;DHT22;2497;47.410;9.740;2023-09-12T15:40:41;20.40;99.90
4964;DHT22;2497;47.410;9.740;2023-09-12T15:43:10;20.40;99.90
4964;DHT22;2497;47.410;9.740;2023-09-12T15:45:41;20.30;99.90
4964;DHT22;2497;47.410;9.740;2023-09-12T15:48:10;20.40;99.90
4964;DHT22;2497;47.410;9.740;2023-09-12T15:50:38;20.40;99.90
4964;DHT22;2497;47.410;9.740;2023-09-12T15:53:11;20.50;99.90
4964;DHT22;2497;47.410;9.740;2023-09-12T15:55:41;20.60;99.90
4964;DHT22;2497;47.410;9.740;2023-09-12T15:58:09;20.70;99.90
4964;DHT22;2497;47.410;9.740;2023-09-12T16:00:37;20.80;99.90
4964;DHT22;2497;47.410;9.740;2023-09-12T16:03:05;20.90;99.90
4964;DHT22;2497;47.410;9.740;2023-09-12T16:05:34;21.10;99.90
4964;DHT22;2497;47.410;9.740;2023-09-12T16:08:02;21.20;99.90
4964;DHT22;2497;47.410;9.740;2023-09-12T16:10:31;21.30;99.90